Time;durP1;ratioP1;P1;durP2;ratioP2;P2;SDS_P1;SDS_P2;PMS_P1;PMS_P2;Temp;Humidity;BMP_temperature;BMP_pressure;BME280_temperature;BME280_humidity;BME280_pressure;Samples;Min_cycle;Max_cycle;Signal;HPM_P1;HPM_P2
2024/04/18 00:00:04;;;;;;;11.17;6.40;;;4.40;99.90;;;;;;5180113;27;37742;-79
2024/04/18 00:02:32;;;;;;;13.27;7.60;;;4.40;99.90;;;;;;5163318;27;37887;-79
2024/04/18 00:04:58;;;;;;;10.40;7.10;;;4.40;99.90;;;;;;5205050;27;38805;-79
2024/04/18 00:07:24;;;;;;;10.23;6.97;;;4.40;99.90;;;;;;5194991;27;38579;-78
2024/04/18 00:09:50;;;;;;;11.73;7.30;;;4.40;99.90;;;;;;5191431;27;36526;-77
2024/04/18 00:12:17;;;;;;;18.07;8.67;;;4.40;99.90;;;;;;5200027;27;38832;-78
2024/04/18 00:14:43;;;;;;;11.27;7.67;;;4.40;99.90;;;;;;5190120;27;38399;-78
2024/04/18 00:17:12;;;;;;;7.27;6.07;;;4.40;99.90;;;;;;5180141;27;38853;-78
2024/04/18 00:19:38;;;;;;;15.63;6.73;;;4.30;99.90;;;;;;5179818;27;37150;-78
2024/04/18 00:22:05;;;;;;;11.57;7.07;;;4.30;99.90;;;;;;5173219;27;38953;-78
2024/04/18 00:24:31;;;;;;;12.30;6.90;;;4.40;99.90;;;;;;5178036;27;41763;-78
2024/04/18 00:26:57;;;;;;;11.70;7.43;;;4.50;99.90;;;;;;5178546;27;38752;-78
2024/04/18 00:29:23;;;;;;;9.57;6.50;;;4.50;99.90;;;;;;5186089;27;36987;-78
2024/04/18 00:31:49;;;;;;;11.53;6.53;;;4.50;99.90;;;;;;5184142;27;39900;-78
2024/04/18 00:34:15;;;;;;;10.97;6.47;;;4.60;99.90;;;;;;5183402;27;39723;-77
2024/04/18 00:36:42;;;;;;;13.50;8.00;;;4.60;99.90;;;;;;5176428;27;39001;-78
2024/04/18 00:39:11;;;;;;;9.40;6.60;;;4.60;99.90;;;;;;5174271;27;37875;-78
2024/04/18 00:41:37;;;;;;;12.10;7.87;;;4.70;99.90;;;;;;5172380;27;37948;-78
2024/04/18 00:44:06;;;;;;;10.23;7.10;;;4.70;99.90;;;;;;5181231;27;39423;-78
2024/04/18 00:46:33;;;;;;;13.70;7.90;;;4.80;99.90;;;;;;5171523;27;38722;-78
2024/04/18 00:48:59;;;;;;;11.33;7.67;;;4.80;99.90;;;;;;5176968;27;38859;-78
2024/04/18 00:51:26;;;;;;;8.33;7.20;;;4.80;99.90;;;;;;5169236;27;39425;-78
2024/04/18 00:53:53;;;;;;;11.43;8.47;;;4.90;99.90;;;;;;5178262;27;37252;-77
2024/04/18 00:56:20;;;;;;;11.40;7.40;;;4.90;99.90;;;;;;5182323;27;38595;-78
2024/04/18 00:58:50;;;;;;;12.17;7.60;;;5.00;99.90;;;;;;5175085;27;36122;-78
2024/04/18 01:03:55;;;;;;;11.07;7.93;;;5.10;99.90;;;;;;3093867;22;20069;-81
2024/04/18 01:06:21;;;;;;;14.27;8.07;;;5.00;99.90;;;;;;5169414;27;38802;-81
2024/04/18 01:08:47;;;;;;;14.10;8.10;;;5.00;99.90;;;;;;5167718;27;37890;-80
2024/04/18 01:11:14;;;;;;;12.63;8.20;;;5.00;99.90;;;;;;5176544;27;41064;-80
2024/04/18 01:13:40;;;;;;;20.20;10.00;;;5.00;99.90;;;;;;5183045;27;40261;-81
2024/04/18 01:16:06;;;;;;;15.10;8.77;;;5.00;99.90;;;;;;5183447;27;36905;-80
2024/04/18 01:18:32;;;;;;;21.07;10.60;;;5.10;99.90;;;;;;5179922;27;39379;-81
2024/04/18 01:20:59;;;;;;;19.37;10.83;;;5.10;99.90;;;;;;5183214;27;40114;-80
2024/04/18 01:23:32;;;;;;;15.50;9.97;;;5.20;99.90;;;;;;5178114;27;36851;-81
2024/04/18 01:25:58;;;;;;;15.83;11.63;;;5.20;99.90;;;;;;5184209;27;35688;-81
2024/04/18 01:28:24;;;;;;;20.73;10.23;;;5.20;99.90;;;;;;5186078;27;37847;-81
2024/04/18 01:30:50;;;;;;;12.77;10.90;;;5.20;99.90;;;;;;5183320;27;38445;-80
2024/04/18 01:33:16;;;;;;;17.47;10.27;;;5.20;99.90;;;;;;5185764;27;38453;-81
2024/04/18 01:35:43;;;;;;;12.00;9.00;;;5.30;99.90;;;;;;5180945;27;39740;-80
2024/04/18 01:38:09;;;;;;;16.30;11.27;;;5.20;99.90;;;;;;5194329;27;37682;-80
2024/04/18 01:40:35;;;;;;;12.73;9.67;;;5.20;99.90;;;;;;5197483;27;40480;-80
2024/04/18 01:43:01;;;;;;;14.00;8.97;;;5.20;99.90;;;;;;5198614;27;38344;-81
2024/04/18 01:45:27;;;;;;;16.90;10.33;;;5.20;99.90;;;;;;5198081;27;50130;-80
2024/04/18 01:47:53;;;;;;;11.30;9.07;;;5.10;99.90;;;;;;5192501;27;36090;-80
2024/04/18 01:50:19;;;;;;;14.60;9.30;;;5.10;99.90;;;;;;5194792;27;38857;-80
2024/04/18 01:52:45;;;;;;;15.03;9.73;;;5.00;99.90;;;;;;5196334;27;37101;-80
2024/04/18 01:55:12;;;;;;;15.97;10.10;;;5.00;99.90;;;;;;5197879;27;37951;-80
2024/04/18 01:57:39;;;;;;;13.13;10.33;;;5.00;99.90;;;;;;5195843;27;36562;-80
2024/04/18 02:00:06;;;;;;;15.37;9.53;;;4.90;99.90;;;;;;5192877;27;39463;-80
2024/04/18 02:02:32;;;;;;;14.70;9.90;;;4.80;99.90;;;;;;5192135;27;38589;-81
2024/04/18 02:04:58;;;;;;;9.70;8.00;;;4.80;99.90;;;;;;5189241;27;36486;-80
2024/04/18 02:07:24;;;;;;;14.53;9.77;;;4.80;99.90;;;;;;5182377;27;37001;-81
2024/04/18 02:09:51;;;;;;;15.97;9.90;;;4.70;99.90;;;;;;5186492;27;38824;-80
2024/04/18 02:12:17;;;;;;;13.20;9.20;;;4.70;99.90;;;;;;5184463;27;39580;-80
2024/04/18 02:14:43;;;;;;;13.33;9.30;;;4.70;99.90;;;;;;5197792;27;36995;-80
2024/04/18 02:17:09;;;;;;;11.10;7.87;;;4.70;99.90;;;;;;5197422;27;37630;-80
2024/04/18 02:19:36;;;;;;;14.90;9.87;;;4.60;99.90;;;;;;5192497;27;39026;-80
2024/04/18 02:22:03;;;;;;;10.80;8.60;;;4.50;99.90;;;;;;5203756;27;38390;-81
2024/04/18 02:24:31;;;;;;;15.20;10.63;;;4.50;99.90;;;;;;5199716;27;39623;-80
2024/04/18 02:26:58;;;;;;;13.00;9.37;;;4.50;99.90;;;;;;5180726;27;37991;-80
2024/04/18 02:29:24;;;;;;;15.33;9.53;;;4.40;99.90;;;;;;5178767;27;37610;-80
2024/04/18 02:31:50;;;;;;;12.93;10.20;;;4.40;99.90;;;;;;5179686;27;39433;-80
2024/04/18 02:34:16;;;;;;;11.53;9.33;;;4.40;99.90;;;;;;5174957;27;37946;-80
2024/04/18 02:36:42;;;;;;;17.00;10.33;;;4.30;99.90;;;;;;5175482;27;37248;-80
2024/04/18 02:39:08;;;;;;;13.77;9.00;;;4.40;99.90;;;;;;5175259;27;38212;-80
2024/04/18 02:41:35;;;;;;;15.33;11.30;;;4.30;99.90;;;;;;5179200;27;39629;-80
2024/04/18 02:44:01;;;;;;;19.90;11.77;;;4.30;99.90;;;;;;5179134;27;38176;-79
2024/04/18 02:46:28;;;;;;;17.77;10.20;;;4.20;99.90;;;;;;5175613;27;46463;-78
2024/04/18 02:48:54;;;;;;;19.53;10.77;;;4.20;99.90;;;;;;5181527;27;39409;-80
2024/04/18 02:51:20;;;;;;;13.50;9.70;;;4.20;99.90;;;;;;5177213;27;39522;-80
2024/04/18 02:53:46;;;;;;;16.90;11.13;;;4.10;99.90;;;;;;5188105;27;38689;-79
2024/04/18 02:56:12;;;;;;;18.17;11.60;;;4.10;99.90;;;;;;5185720;27;38332;-80
2024/04/18 02:58:38;;;;;;;17.23;12.50;;;4.10;99.90;;;;;;5176087;27;39147;-79
2024/04/18 03:01:04;;;;;;;15.87;11.27;;;4.10;99.90;;;;;;5173967;27;39558;-79
2024/04/18 03:03:30;;;;;;;15.50;11.63;;;4.10;99.90;;;;;;5181588;27;38562;-79
2024/04/18 03:06:03;;;;;;;15.70;11.57;;;4.10;99.90;;;;;;5182899;27;37949;-79
2024/04/18 03:08:30;;;;;;;17.93;11.60;;;4.10;99.90;;;;;;5180934;27;46818;-79
2024/04/18 03:10:56;;;;;;;18.27;12.00;;;4.10;99.90;;;;;;5179608;27;39570;-78
2024/04/18 03:13:22;;;;;;;20.13;12.50;;;4.10;99.90;;;;;;5184969;27;38834;-78
2024/04/18 03:15:48;;;;;;;17.87;10.83;;;4.10;99.90;;;;;;5183281;27;37783;-79
2024/04/18 03:18:14;;;;;;;15.43;10.53;;;4.00;99.90;;;;;;5184282;27;40638;-79
2024/04/18 03:20:41;;;;;;;14.67;10.43;;;4.00;99.90;;;;;;5179962;27;38255;-79
2024/04/18 03:23:08;;;;;;;18.77;11.87;;;4.00;99.90;;;;;;5178497;27;38209;-78
2024/04/18 03:25:35;;;;;;;18.23;11.10;;;4.00;99.90;;;;;;5178716;27;37482;-79
2024/04/18 03:28:02;;;;;;;14.73;9.23;;;4.00;99.90;;;;;;5174462;27;39151;-79
2024/04/18 03:30:28;;;;;;;20.00;10.33;;;3.90;99.90;;;;;;5178922;27;37747;-78
2024/04/18 03:32:54;;;;;;;12.00;9.00;;;3.90;99.90;;;;;;5178546;27;36492;-79
2024/04/18 03:35:20;;;;;;;12.47;8.60;;;3.90;99.90;;;;;;5175126;27;38043;-78
2024/04/18 03:37:46;;;;;;;13.50;8.63;;;3.90;99.90;;;;;;5176097;27;37380;-79
2024/04/18 03:40:12;;;;;;;12.50;8.63;;;3.80;99.90;;;;;;5177854;27;38827;-79
2024/04/18 03:42:38;;;;;;;12.13;7.87;;;3.80;99.90;;;;;;5201457;27;38824;-79
2024/04/18 03:45:05;;;;;;;13.93;8.50;;;3.80;99.90;;;;;;5184483;27;37510;-79
2024/04/18 03:47:32;;;;;;;11.17;8.10;;;3.80;99.90;;;;;;5186524;27;37748;-79
2024/04/18 03:49:58;;;;;;;11.90;8.67;;;3.80;99.90;;;;;;5169238;27;40018;-79
2024/04/18 03:52:24;;;;;;;12.10;7.63;;;3.80;99.90;;;;;;5175463;27;39354;-79
2024/04/18 03:54:50;;;;;;;13.07;8.07;;;3.70;99.90;;;;;;5181293;27;36827;-80
2024/04/18 03:57:16;;;;;;;10.23;7.60;;;3.70;99.90;;;;;;5177978;27;37991;-80
2024/04/18 03:59:42;;;;;;;9.60;7.23;;;3.70;99.90;;;;;;5182466;27;40700;-80
2024/04/18 04:02:08;;;;;;;9.67;6.87;;;3.70;99.90;;;;;;5180055;27;37284;-80
2024/04/18 04:04:34;;;;;;;15.70;7.83;;;3.60;99.90;;;;;;5186728;27;37445;-80
2024/04/18 04:07:01;;;;;;;14.53;7.53;;;3.60;99.90;;;;;;5181850;27;37854;-79
2024/04/18 04:09:27;;;;;;;9.43;6.90;;;3.60;99.90;;;;;;5184553;27;38788;-79
2024/04/18 04:11:53;;;;;;;11.13;7.20;;;3.60;99.90;;;;;;5182465;27;38331;-80
2024/04/18 04:14:19;;;;;;;8.77;6.70;;;3.60;99.90;;;;;;5182389;27;40280;-80
2024/04/18 04:16:46;;;;;;;8.57;5.53;;;3.50;99.90;;;;;;5201262;27;39311;-80
2024/04/18 04:19:12;;;;;;;11.83;5.90;;;3.50;99.90;;;;;;5196475;27;38710;-81
2024/04/18 04:21:38;;;;;;;11.90;7.00;;;3.50;99.90;;;;;;5194775;27;38435;-81
2024/04/18 04:24:06;;;;;;;11.90;6.83;;;3.50;99.90;;;;;;5177258;27;38619;-80
2024/04/18 04:26:33;;;;;;;10.90;6.37;;;3.50;99.90;;;;;;5183397;27;37807;-80
2024/04/18 04:29:01;;;;;;;14.73;7.63;;;3.50;99.90;;;;;;5181924;27;39764;-81
2024/04/18 04:31:28;;;;;;;17.27;8.27;;;3.40;99.90;;;;;;5180003;27;46483;-80
2024/04/18 04:33:55;;;;;;;11.40;6.70;;;3.40;99.90;;;;;;5187075;27;37669;-81
2024/04/18 04:36:22;;;;;;;10.20;6.83;;;3.50;99.90;;;;;;5180897;27;38850;-80
2024/04/18 04:38:48;;;;;;;10.87;6.50;;;3.50;99.90;;;;;;5188945;27;38516;-80
2024/04/18 04:41:14;;;;;;;18.73;7.73;;;3.50;99.90;;;;;;5183506;27;38627;-80
2024/04/18 04:43:47;;;;;;;10.23;7.13;;;3.60;99.90;;;;;;5182468;27;34772;-81
2024/04/18 04:46:13;;;;;;;10.88;7.15;;;3.50;99.90;;;;;;5187057;27;40119;-81
2024/04/18 04:48:39;;;;;;;11.50;6.60;;;3.50;99.90;;;;;;5183018;27;37043;-81
2024/04/18 04:51:05;;;;;;;12.90;7.80;;;3.50;99.90;;;;;;5169088;27;38538;-80
2024/04/18 04:53:31;;;;;;;10.97;6.97;;;3.50;99.90;;;;;;5190011;27;37010;-79
2024/04/18 04:55:58;;;;;;;13.93;7.27;;;3.50;99.90;;;;;;5178413;27;40432;-80
2024/04/18 04:58:24;;;;;;;17.17;9.53;;;3.50;99.90;;;;;;5195175;27;37016;-80
2024/04/18 05:01:00;;;;;;;12.83;6.97;;;3.50;99.90;;;;;;5185879;27;37898;-79
2024/04/18 05:03:26;;;;;;;11.63;7.40;;;3.50;99.90;;;;;;5192832;27;37182;-80
2024/04/18 05:05:52;;;;;;;13.07;6.97;;;3.60;99.90;;;;;;5191917;27;37621;-81
2024/04/18 05:08:19;;;;;;;12.67;7.53;;;3.60;99.90;;;;;;5192595;27;37401;-79
2024/04/18 05:10:45;;;;;;;16.73;7.83;;;3.70;99.90;;;;;;5201979;27;37660;-81
2024/04/18 05:13:12;;;;;;;13.13;7.87;;;3.70;99.90;;;;;;5196117;27;37901;-78
2024/04/18 05:15:44;;;;;;;16.30;7.97;;;3.80;99.90;;;;;;5192112;27;40462;-81
2024/04/18 05:18:11;;;;;;;15.15;8.90;;;3.80;99.90;;;;;;5193290;27;38801;-80
2024/04/18 05:20:47;;;;;;;18.43;8.70;;;3.90;99.90;;;;;;5183315;27;38461;-81
2024/04/18 05:23:13;;;;;;;14.63;7.97;;;3.90;99.90;;;;;;5195746;27;36428;-80
2024/04/18 05:25:39;;;;;;;16.27;8.13;;;4.00;99.90;;;;;;5206704;27;38799;-80
2024/04/18 05:28:19;;;;;;;18.87;8.43;;;4.00;99.90;;;;;;5174833;27;38069;-79
2024/04/18 05:31:03;;;;;;;11.33;7.53;;;4.00;99.90;;;;;;5190349;27;39151;-80
2024/04/18 05:33:30;;;;;;;13.33;7.87;;;4.00;99.90;;;;;;5197391;27;47666;-80
2024/04/18 05:35:57;;;;;;;18.87;8.83;;;4.10;99.90;;;;;;5182581;27;39155;-80
2024/04/18 05:38:23;;;;;;;12.23;8.03;;;4.20;99.90;;;;;;5191255;27;37513;-79
2024/04/18 05:40:49;;;;;;;18.43;8.87;;;4.40;99.90;;;;;;5197402;27;39585;-80
2024/04/18 05:43:16;;;;;;;17.67;9.37;;;4.60;99.90;;;;;;5181623;27;37500;-79
2024/04/18 05:45:49;;;;;;;20.07;9.23;;;4.70;99.90;;;;;;5179479;27;38879;-81
2024/04/18 05:48:15;;;;;;;18.80;8.57;;;4.90;99.90;;;;;;5174932;27;38423;-81
2024/04/18 05:50:41;;;;;;;14.73;8.40;;;4.90;99.90;;;;;;5182101;27;39238;-82
2024/04/18 05:53:08;;;;;;;13.67;8.80;;;5.00;99.90;;;;;;5180936;27;37888;-80
2024/04/18 05:55:34;;;;;;;17.57;8.50;;;5.10;99.90;;;;;;5194075;27;37670;-80
2024/04/18 05:58:00;;;;;;;17.93;7.97;;;5.20;99.90;;;;;;5198572;27;38254;-82
2024/04/18 06:00:26;;;;;;;15.90;7.80;;;5.40;99.90;;;;;;5196678;27;39670;-82
2024/04/18 06:02:52;;;;;;;15.87;7.67;;;5.50;99.90;;;;;;5181724;27;47329;-82
2024/04/18 06:05:19;;;;;;;18.60;6.77;;;5.60;99.90;;;;;;5193116;27;37736;-82
2024/04/18 06:07:48;;;;;;;14.23;7.53;;;5.50;99.90;;;;;;5193377;27;38671;-82
2024/04/18 06:10:17;;;;;;;14.57;6.60;;;5.60;99.90;;;;;;5194420;27;37717;-82
2024/04/18 06:12:52;;;;;;;16.53;6.07;;;5.70;99.90;;;;;;5194668;27;38275;-82
2024/04/18 06:15:18;;;;;;;10.40;5.77;;;5.90;99.90;;;;;;5192356;27;37459;-82
2024/04/18 06:17:44;;;;;;;12.87;4.97;;;6.10;99.90;;;;;;5194001;27;37184;-83
2024/04/18 06:20:11;;;;;;;11.40;5.23;;;6.20;99.90;;;;;;5194504;27;37233;-82
2024/04/18 06:22:37;;;;;;;11.50;4.50;;;6.40;99.90;;;;;;5197862;27;38184;-82
2024/04/18 06:25:03;;;;;;;16.60;5.33;;;6.50;99.90;;;;;;5198365;27;40293;-82
2024/04/18 06:27:29;;;;;;;8.93;3.43;;;6.50;99.90;;;;;;5194291;27;38650;-82
2024/04/18 06:30:01;;;;;;;8.67;3.63;;;6.60;99.90;;;;;;5193693;27;36859;-82
2024/04/18 06:32:27;;;;;;;9.87;3.80;;;6.60;99.90;;;;;;5194271;27;36100;-82
2024/04/18 06:34:53;;;;;;;7.87;3.60;;;6.70;99.90;;;;;;5198068;27;38781;-82
2024/04/18 06:37:26;;;;;;;10.50;4.67;;;6.80;99.90;;;;;;5194565;27;38531;-82
2024/04/18 06:39:52;;;;;;;11.63;4.97;;;6.80;99.90;;;;;;5182403;27;39224;-82
2024/04/18 06:42:18;;;;;;;13.83;5.70;;;6.90;99.90;;;;;;5197517;27;37588;-82
2024/04/18 06:44:45;;;;;;;9.23;4.60;;;7.10;99.90;;;;;;5195138;27;37633;-82
2024/04/18 06:47:11;;;;;;;7.83;5.20;;;7.20;96.40;;;;;;5201888;27;36662;-83
2024/04/18 06:49:38;;;;;;;11.73;5.87;;;7.30;86.40;;;;;;5201738;27;38122;-81
2024/04/18 06:52:06;;;;;;;7.97;4.77;;;7.40;70.30;;;;;;5198694;27;35861;-83
2024/04/18 06:54:32;;;;;;;9.53;3.47;;;7.50;53.90;;;;;;5189194;27;38840;-82
2024/04/18 06:57:09;;;;;;;10.20;3.53;;;7.60;24.60;;;;;;5205192;27;38312;-81
2024/04/18 06:59:35;;;;;;;7.83;3.00;;;7.70;22.00;;;;;;5200062;27;50570;-82
2024/04/18 07:02:08;;;;;;;9.27;3.23;;;7.90;19.70;;;;;;5203824;27;37187;-82
2024/04/18 07:04:36;;;;;;;5.20;2.58;;;7.90;15.10;;;;;;5178647;27;38953;-82
2024/04/18 07:07:08;;;;;;;6.50;2.87;;;8.10;10.60;;;;;;5201438;27;39548;-80
2024/04/18 07:09:34;;;;;;;7.95;2.70;;;8.20;1.00;;;;;;5203928;27;37809;-81
2024/04/18 07:12:01;;;;;;;5.23;2.07;;;8.30;1.00;;;;;;5205191;27;38535;-80
2024/04/18 07:14:27;;;;;;;7.30;1.90;;;8.50;1.50;;;;;;5204057;27;50568;-80
2024/04/18 07:17:03;;;;;;;7.93;1.70;;;8.50;1.00;;;;;;5203399;27;38339;-81
2024/04/18 07:19:29;;;;;;;4.50;1.63;;;8.50;1.00;;;;;;5202506;27;50600;-82
2024/04/18 07:22:01;;;;;;;6.20;1.70;;;8.50;1.00;;;;;;5181780;27;37103;-82
2024/04/18 07:24:28;;;;;;;5.47;1.88;;;8.50;1.00;;;;;;5175531;27;48486;-80
2024/04/18 07:26:54;;;;;;;5.27;1.60;;;8.60;1.00;;;;;;5202665;27;37202;-81
2024/04/18 07:29:21;;;;;;;4.70;2.03;;;8.60;1.00;;;;;;5203957;27;39895;-82
2024/04/18 07:31:48;;;;;;;5.97;2.50;;;8.50;1.00;;;;;;5199277;27;40323;-81
2024/04/18 07:34:14;;;;;;;2.50;1.60;;;8.60;1.00;;;;;;5204210;27;40339;-80
2024/04/18 07:36:43;;;;;;;3.67;1.80;;;8.70;1.00;;;;;;5202308;27;37997;-79
2024/04/18 07:39:09;;;;;;;6.13;1.73;;;8.80;1.00;;;;;;5202935;27;39552;-80
2024/04/18 07:41:43;;;;;;;3.90;1.03;;;8.90;1.00;;;;;;5202631;27;35916;-80
2024/04/18 07:44:11;;;;;;;2.17;0.80;;;9.10;1.00;;;;;;5201855;27;38859;-80
2024/04/18 07:46:39;;;;;;;2.43;0.70;;;9.20;1.00;;;;;;5202355;27;38247;-80
2024/04/18 07:49:07;;;;;;;3.33;1.17;;;9.40;1.00;;;;;;5199849;27;39754;-78
2024/04/18 07:51:33;;;;;;;2.30;0.87;;;9.50;1.00;;;;;;5189660;27;37557;-79
2024/04/18 07:53:59;;;;;;;3.20;1.67;;;9.80;1.00;;;;;;5195525;27;38618;-80
2024/04/18 07:56:25;;;;;;;3.77;0.90;;;10.00;1.00;;;;;;5183153;27;37813;-80
2024/04/18 07:58:53;;;;;;;4.43;1.10;;;10.30;1.00;;;;;;5186775;27;36650;-79
2024/04/18 08:01:20;;;;;;;2.57;0.57;;;10.60;1.00;;;;;;5192813;27;37653;-80
2024/04/18 08:03:46;;;;;;;7.33;2.43;;;10.60;1.00;;;;;;5193734;27;37585;-79
2024/04/18 08:06:12;;;;;;;2.10;0.73;;;10.80;99.90;;;;;;5193185;27;36798;-80
2024/04/18 08:08:38;;;;;;;1.58;0.90;;;10.80;1.00;;;;;;5189701;27;37780;-80
2024/04/18 08:11:08;;;;;;;1.55;0.60;;;10.60;99.90;;;;;;5193752;27;36708;-79
2024/04/18 08:13:37;;;;;;;3.22;1.00;;;10.50;99.90;;;;;;5178546;27;38312;-79
2024/04/18 08:16:04;;;;;;;2.30;0.90;;;10.20;1.00;;;;;;5190588;27;37500;-78
2024/04/18 08:18:30;;;;;;;3.85;0.88;;;9.90;1.00;;;;;;5195641;27;38473;-80
2024/04/18 08:20:56;;;;;;;3.40;0.70;;;9.60;1.00;;;;;;5196121;27;36361;-78
2024/04/18 08:23:23;;;;;;;1.80;0.60;;;9.10;1.00;;;;;;5192755;27;38718;-79
2024/04/18 08:25:49;;;;;;;2.37;0.70;;;8.70;1.00;;;;;;5191764;27;38737;-80
2024/04/18 08:28:16;;;;;;;3.50;0.93;;;8.40;1.00;;;;;;5183789;27;40800;-78
2024/04/18 08:30:44;;;;;;;1.67;0.50;;;8.30;1.00;;;;;;5194937;27;37749;-79
2024/04/18 08:33:10;;;;;;;1.63;0.60;;;8.30;17.90;;;;;;5193294;27;40277;-79
2024/04/18 08:35:37;;;;;;;2.67;0.60;;;8.50;38.70;;;;;;5194042;27;37297;-79
2024/04/18 08:38:04;;;;;;;4.70;1.17;;;8.70;24.50;;;;;;5178904;27;37330;-80
2024/04/18 08:40:30;;;;;;;1.57;0.57;;;8.80;18.40;;;;;;5193765;27;37349;-79
2024/04/18 08:42:56;;;;;;;2.10;0.63;;;9.10;25.70;;;;;;5190973;27;38830;-79
2024/04/18 08:45:27;;;;;;;2.23;0.70;;;9.20;1.00;;;;;;5195958;27;39913;-80
2024/04/18 08:47:55;;;;;;;1.80;0.60;;;9.40;1.00;;;;;;5189428;27;37096;-79
2024/04/18 08:50:22;;;;;;;1.57;0.60;;;9.70;1.00;;;;;;5192525;27;37172;-80
2024/04/18 08:52:51;;;;;;;2.08;0.60;;;9.90;1.00;;;;;;5184500;27;38658;-78
2024/04/18 08:55:17;;;;;;;2.92;0.80;;;9.90;1.00;;;;;;5197502;27;37078;-79
2024/04/18 08:57:49;;;;;;;2.55;1.00;;;10.20;1.00;;;;;;5188566;27;37595;-79
2024/04/18 09:00:16;;;;;;;5.30;2.17;;;10.70;1.00;;;;;;5180402;27;37242;-79
2024/04/18 09:02:43;;;;;;;3.75;0.60;;;10.90;1.00;;;;;;5181869;27;38524;-78
2024/04/18 09:05:09;;;;;;;2.30;0.80;;;11.10;1.00;;;;;;5183284;27;37348;-78
2024/04/18 09:07:36;;;;;;;3.55;0.70;;;11.20;1.00;;;;;;5181085;27;38953;-78
2024/04/18 09:10:09;;;;;;;2.70;0.68;;;11.30;1.00;;;;;;5184377;27;37134;-78
2024/04/18 09:12:35;;;;;;;5.15;0.75;;;11.80;1.00;;;;;;5183910;27;47109;-79
2024/04/18 09:15:03;;;;;;;4.53;1.90;;;11.90;1.00;;;;;;5185101;27;39666;-78
2024/04/18 09:17:30;;;;;;;25.70;13.07;;;11.80;99.90;;;;;;5176988;27;36677;-80
2024/04/18 09:19:56;;;;;;;11.60;5.80;;;11.70;99.90;;;;;;5192624;27;37980;-78
2024/04/18 09:22:22;;;;;;;2.08;0.98;;;11.50;1.00;;;;;;5174742;27;40277;-80
2024/04/18 09:24:48;;;;;;;2.25;0.40;;;11.40;99.90;;;;;;5189471;27;38419;-79
2024/04/18 09:27:15;;;;;;;2.28;0.63;;;11.20;1.00;;;;;;5198316;27;38729;-80
2024/04/18 09:29:43;;;;;;;3.80;0.70;;;11.00;1.00;;;;;;5199287;27;37227;-80
2024/04/18 09:32:14;;;;;;;2.42;0.75;;;10.60;1.00;;;;;;5191050;27;37470;-80
2024/04/18 09:34:47;;;;;;;2.33;0.63;;;10.30;1.00;;;;;;5190437;27;38278;-80
2024/04/18 09:37:15;;;;;;;2.60;0.88;;;10.10;1.00;;;;;;5188094;27;38824;-79
2024/04/18 09:39:51;;;;;;;2.88;0.68;;;9.90;1.00;;;;;;5181248;27;37709;-81
2024/04/18 09:42:36;;;;;;;5.53;0.70;;;9.80;1.00;;;;;;5194845;27;38913;-80
2024/04/18 09:45:04;;;;;;;3.97;0.90;;;9.60;1.00;;;;;;5197200;27;39022;-78
2024/04/18 09:47:32;;;;;;;2.07;0.50;;;9.60;1.00;;;;;;5196318;27;38163;-79
2024/04/18 09:49:59;;;;;;;3.13;0.67;;;9.50;1.00;;;;;;5190615;27;38308;-79
2024/04/18 09:52:25;;;;;;;2.47;0.83;;;9.60;1.00;;;;;;5186307;27;40372;-80
2024/04/18 09:54:54;;;;;;;5.40;0.80;;;9.80;1.00;;;;;;5187188;27;37802;-81
2024/04/18 09:57:21;;;;;;;6.75;1.58;;;10.20;1.00;;;;;;5205722;27;39748;-79
2024/04/18 09:59:48;;;;;;;4.57;1.13;;;10.70;1.00;;;;;;5183928;27;37211;-79
2024/04/18 10:02:14;;;;;;;5.22;0.82;;;11.40;1.00;;;;;;5193010;27;36690;-79
2024/04/18 10:04:42;;;;;;;3.33;0.80;;;11.30;26.20;;;;;;5195242;27;38206;-80
2024/04/18 10:07:13;;;;;;;4.85;0.90;;;11.00;1.00;;;;;;5195269;27;38221;-81
2024/04/18 10:09:40;;;;;;;4.93;0.80;;;10.80;1.00;;;;;;5196578;27;38480;-80
2024/04/18 10:12:08;;;;;;;2.92;0.63;;;10.70;1.00;;;;;;5189271;27;37288;-80
2024/04/18 10:14:37;;;;;;;3.80;0.47;;;10.60;99.90;;;;;;5190113;27;38652;-80
2024/04/18 10:17:04;;;;;;;4.75;1.00;;;10.40;1.00;;;;;;5190933;27;36657;-79
2024/04/18 10:19:31;;;;;;;3.17;0.40;;;10.70;1.00;;;;;;5197469;27;50317;-79
2024/04/18 10:21:58;;;;;;;25.60;4.13;;;11.10;99.90;;;;;;5189235;27;39582;-80
2024/04/18 10:24:34;;;;;;;19.85;2.20;;;11.60;99.90;;;;;;5188124;27;38860;-78
2024/04/18 10:27:06;;;;;;;7.93;0.90;;;12.00;1.00;;;;;;5187644;27;38348;-80
2024/04/18 10:29:33;;;;;;;7.53;0.93;;;12.10;70.20;;;;;;5191995;27;47060;-80
2024/04/18 10:32:00;;;;;;;1.85;0.40;;;12.30;99.90;;;;;;5199297;27;39588;-80
2024/04/18 10:34:29;;;;;;;2.05;0.40;;;12.30;99.90;;;;;;5196926;27;38122;-80
2024/04/18 10:37:05;;;;;;;3.63;0.50;;;12.10;99.90;;;;;;5199622;27;36801;-81
2024/04/18 10:39:35;;;;;;;2.28;0.30;;;12.20;1.00;;;;;;5203378;27;47248;-80
2024/04/18 10:42:02;;;;;;;4.78;0.45;;;12.20;99.90;;;;;;5188600;27;39433;-79
2024/04/18 10:44:29;;;;;;;1.25;0.35;;;12.20;99.90;;;;;;5183467;27;47830;-79
2024/04/18 10:46:56;;;;;;;4.88;0.70;;;12.30;1.00;;;;;;5183684;27;37829;-80
2024/04/18 10:49:22;;;;;;;5.72;0.70;;;12.70;99.90;;;;;;5189604;27;39042;-80
2024/04/18 10:51:56;;;;;;;1.05;0.32;;;13.00;99.90;;;;;;5199871;27;39800;-81
2024/04/18 10:54:23;;;;;;;5.45;0.60;;;13.40;1.00;;;;;;5187331;27;38383;-81
2024/04/18 10:56:50;;;;;;;3.83;0.63;;;13.40;1.00;;;;;;5195239;27;38837;-80
2024/04/18 10:59:19;;;;;;;4.18;0.57;;;13.40;99.90;;;;;;5197565;27;37409;-79
2024/04/18 11:01:45;;;;;;;5.47;0.57;;;13.00;99.90;;;;;;5195325;27;37662;-80
2024/04/18 11:04:11;;;;;;;2.58;0.43;;;12.10;99.90;;;;;;5200377;27;38809;-80
2024/04/18 11:06:40;;;;;;;2.75;0.70;;;12.20;1.00;;;;;;5200640;27;37038;-80
2024/04/18 11:09:07;;;;;;;1.70;0.45;;;12.50;99.90;;;;;;5200271;27;36704;-80
2024/04/18 11:11:38;;;;;;;1.33;0.52;;;12.50;1.00;;;;;;5203172;27;39637;-81
2024/04/18 11:14:04;;;;;;;2.63;0.73;;;12.10;99.90;;;;;;5201725;27;38212;-80
2024/04/18 11:16:31;;;;;;;5.20;0.50;;;12.10;99.90;;;;;;5202253;27;36778;-80
2024/04/18 11:18:57;;;;;;;1.13;0.50;;;12.40;1.00;;;;;;5198970;27;36019;-80
2024/04/18 11:21:24;;;;;;;2.08;0.47;;;12.30;95.90;;;;;;5195974;27;38197;-81
2024/04/18 11:23:51;;;;;;;2.30;0.38;;;12.10;1.00;;;;;;5199497;27;37918;-80
2024/04/18 11:26:19;;;;;;;2.60;0.40;;;11.80;1.00;;;;;;5200956;27;39663;-80
2024/04/18 11:28:55;;;;;;;1.25;0.40;;;11.70;1.00;;;;;;5200442;27;36449;-81
2024/04/18 11:31:22;;;;;;;1.52;0.25;;;11.90;1.00;;;;;;5201062;27;38455;-81
2024/04/18 11:33:49;;;;;;;2.42;0.50;;;11.80;30.80;;;;;;5197976;27;38840;-79
2024/04/18 11:36:22;;;;;;;0.82;0.30;;;11.70;99.90;;;;;;5199003;27;37827;-80
2024/04/18 11:38:48;;;;;;;0.95;0.30;;;12.00;74.40;;;;;;5189718;27;36251;-79
2024/04/18 11:41:14;;;;;;;2.92;0.32;;;12.50;1.00;;;;;;5200025;27;38961;-80
2024/04/18 11:43:41;;;;;;;1.30;0.20;;;12.70;1.00;;;;;;5200017;27;39264;-80
2024/04/18 11:46:07;;;;;;;0.60;0.30;;;12.50;99.90;;;;;;5199797;27;38131;-80
2024/04/18 11:48:33;;;;;;;1.45;0.28;;;12.10;99.90;;;;;;5198716;27;38951;-80
2024/04/18 11:51:01;;;;;;;0.95;0.30;;;11.80;99.90;;;;;;5198264;27;20021;-81
2024/04/18 11:53:27;;;;;;;2.08;0.30;;;11.70;12.40;;;;;;5190984;27;38900;-80
2024/04/18 11:55:53;;;;;;;3.33;0.40;;;11.70;99.90;;;;;;5199795;27;38080;-81
2024/04/18 11:58:19;;;;;;;2.33;0.35;;;11.90;1.00;;;;;;5202724;27;37181;-80
2024/04/18 12:00:48;;;;;;;3.88;0.60;;;12.60;1.00;;;;;;5203508;27;37439;-81
2024/04/18 12:03:14;;;;;;;1.63;0.40;;;13.40;99.90;;;;;;5202182;27;37701;-79
2024/04/18 12:05:40;;;;;;;1.15;0.35;;;14.10;1.00;;;;;;5204873;27;37201;-80
2024/04/18 12:08:21;;;;;;;2.10;0.40;;;14.10;1.00;;;;;;5396618;22;37355;31
2024/04/18 12:16:44;;;;;;;2.53;0.57;;;14.40;99.90;;;;;;5603454;22;20015;-80
2024/04/18 12:19:16;;;;;;;1.90;0.77;;;14.20;99.90;;;;;;5222056;27;36427;-80
2024/04/18 12:21:51;;;;;;;1.25;0.30;;;14.00;1.00;;;;;;5199246;27;39123;-79
2024/04/18 12:24:17;;;;;;;3.17;0.45;;;13.90;1.00;;;;;;5180293;27;36761;-80
2024/04/18 12:26:45;;;;;;;3.90;0.40;;;13.60;1.00;;;;;;5188832;27;38113;-80
2024/04/18 12:29:11;;;;;;;2.70;0.30;;;13.30;1.00;;;;;;5203433;27;36175;-80
2024/04/18 12:31:37;;;;;;;2.60;0.65;;;13.30;99.90;;;;;;5197928;27;38421;-80
2024/04/18 12:36:40;;;;;;;3.17;0.65;;;14.10;1.00;;;;;;5786544;22;20041;-82
2024/04/18 12:39:06;;;;;;;3.13;0.45;;;13.60;1.00;;;;;;5428283;22;38624;-81
2024/04/18 12:44:09;;;;;;;2.17;0.50;;;13.70;1.00;;;;;;5343476;22;20070;-81
2024/04/18 12:47:02;;;;;;;3.50;0.98;;;13.60;1.00;;;;;;5205953;27;39560;-82
2024/04/18 12:49:46;;;;;;;4.65;0.70;;;13.10;99.90;;;;;;5175733;27;48763;-81
2024/04/18 12:52:26;;;;;;;4.60;0.60;;;12.80;99.90;;;;;;5188372;27;39167;-81
2024/04/18 12:57:46;;;;;;;2.42;0.70;;;12.70;99.90;;;;;;6243993;22;20012;-80
2024/04/18 13:06:08;;;;;;;2.63;0.55;;;13.90;99.90;;;;;;5476337;22;20028;-84
2024/04/18 13:08:37;;;;;;;4.95;0.50;;;13.80;1.00;;;;;;5334608;22;49084;-80
2024/04/18 13:14:14;;;;;;;3.13;0.75;;;13.40;1.00;;;;;;5142414;27;20018;-83
2024/04/18 13:16:54;;;;;;;3.28;0.55;;;13.50;1.00;;;;;;5131892;27;38012;-81